LFMD 200130Z AUTO 36004KT 330V050 CAVOK 16/10 Q1026 LFMD 200100Z AUTO 35004KT 320V030 CAVOK 16/10 Q1025 LFMD 200030Z AUTO 35004KT CAVOK 16/10 Q1025 LFMD 200000Z AUTO 01003KT 320V050 CAVOK 17/11 Q1025 LFMD 192330Z AUTO VRB03KT CAVOK 17/11 Q1025 LFMD 192300Z AUTO 35003KT 320V030 CAVOK 17/11 Q1026 LFMD 192230Z AUTO 36003KT 340V040 CAVOK 17/12 Q1026 LFMD 192200Z AUTO VRB02KT CAVOK 18/13 Q1026 LFMD 192130Z AUTO VRB03KT CAVOK 18/13 Q1025 LFMD 192100Z AUTO VRB03KT CAVOK 19/13 Q1025 NOSIG LFMD 192030Z AUTO VRB03KT CAVOK 19/14 Q1025 NOSIG LFMD 192000Z AUTO VRB02KT CAVOK 20/14 Q1025 NOSIG LFMD 191930Z AUTO VRB02KT CAVOK 21/14 Q1025 NOSIG LFMD 191900Z AUTO VRB01KT CAVOK 22/14 Q1024 NOSIG LFMD 191830Z AUTO VRB02KT CAVOK 23/15 Q1024 NOSIG LFMD 191800Z AUTO VRB03KT CAVOK 23/15 Q1024 NOSIG LFMD 191730Z AUTO 17004KT CAVOK 24/16 Q1024 NOSIG LFMD 191700Z AUTO 16005KT CAVOK 24/15 Q1024 NOSIG LFMD 191630Z AUTO 16004KT 120V180 CAVOK 24/15 Q1024 NOSIG LFMD 191600Z AUTO 16005KT 120V200 CAVOK 24/16 Q1024 NOSIG LFMD 191530Z AUTO 16005KT 110V190 CAVOK 25/16 Q1024 NOSIG LFMD 191500Z AUTO 17006KT 140V200 CAVOK 24/16 Q1024 NOSIG LFMD 191430Z AUTO 17006KT CAVOK 25/15 Q1025 NOSIG LFMD 191400Z AUTO 16006KT 120V190 CAVOK 25/15 Q1025 NOSIG LFMD 191330Z AUTO 16006KT CAVOK 25/13 Q1025 NOSIG LFMD 191300Z AUTO 16006KT CAVOK 25/12 Q1025 NOSIG LFMD 191230Z AUTO 16006KT 140V220 CAVOK 26/10 Q1025 NOSIG LFMD 191200Z AUTO 17006KT CAVOK 26/11 Q1025 NOSIG LFMD 191130Z AUTO 17006KT 130V200 CAVOK 26/11 Q1025 NOSIG LFMD 191100Z AUTO 16007KT 110V190 CAVOK 26/09 Q1025 NOSIG LFMD 191030Z AUTO 15009KT 100V180 CAVOK 26/08 Q1026 NOSIG LFMD 191000Z AUTO 13008KT 100V170 CAVOK 26/08 Q1026 NOSIG LFMD 190930Z AUTO 15008KT 100V180 CAVOK 27/06 Q1026 NOSIG LFMD 190900Z AUTO 10006KT 360V170 CAVOK 26/02 Q1026 NOSIG LFMD 190830Z AUTO 11007KT 040V150 CAVOK 27/01 Q1025 NOSIG LFMD 190800Z AUTO VRB04KT CAVOK 27/09 Q1025 NOSIG LFMD 190730Z AUTO 07004KT 010V150 CAVOK 26/11 Q1025 NOSIG LFMD 190700Z AUTO 09007KT 020V160 CAVOK 25/08 Q1025 NOSIG LFMD 190630Z AUTO 07005KT 020V150 CAVOK 25/11 Q1024 NOSIG LFMD 190600Z AUTO VRB03KT CAVOK 23/13 Q1024 NOSIG LFMD 190530Z AUTO 01003KT 330V070 CAVOK 20/15 Q1024 NOSIG LFMD 190500Z AUTO 36004KT 320V040 CAVOK 18/14 Q1024 NOSIG LFMD 190430Z AUTO 01004KT 330V070 CAVOK 17/14 Q1023 NOSIG LFMD 190400Z AUTO 02004KT 340V060 CAVOK 17/14 Q1023 NOSIG LFMD 190330Z AUTO 36004KT 330V040 CAVOK 17/14 Q1023 NOSIG LFMD 190300Z AUTO 36004KT CAVOK 17/14 Q1023 NOSIG LFMD 190230Z AUTO 36004KT 330V030 CAVOK 17/14 Q1022 LFMD 190200Z AUTO 36004KT 330V040 CAVOK 17/15 Q1023 LFMD 190130Z AUTO VRB03KT CAVOK 17/15 Q1022 LFMD 190100Z AUTO 01005KT 340V040 CAVOK 18/15 Q1022 LFMD 190030Z AUTO VRB03KT CAVOK 18/15 Q1022 LFMD 190000Z AUTO VRB03KT CAVOK 18/15 Q1022 LFMD 182330Z AUTO VRB02KT CAVOK 18/15 Q1022 LFMD 182300Z AUTO VRB03KT CAVOK 19/16 Q1022 LFMD 182230Z AUTO VRB03KT CAVOK 19/16 Q1021 LFMD 182200Z AUTO VRB02KT CAVOK 19/16 Q1021 LFMD 182130Z AUTO 01003KT 320V080 CAVOK 19/16 Q1021 LFMD 182100Z AUTO VRB02KT CAVOK 19/16 Q1021 NOSIG LFMD 182030Z AUTO VRB02KT CAVOK 20/16 Q1021 NOSIG LFMD 182000Z AUTO 03002KT CAVOK 20/17 Q1021 NOSIG LFMD 181930Z AUTO 00000KT CAVOK 21/16 Q1021 NOSIG LFMD 181900Z AUTO VRB02KT CAVOK 20/16 Q1021 NOSIG LFMD 181830Z AUTO 20004KT 170V230 CAVOK 21/18 Q1020 NOSIG LFMD 181800Z AUTO 18004KT CAVOK 21/18 Q1020 NOSIG LFMD 181730Z AUTO 18005KT CAVOK 21/18 Q1020 NOSIG LFMD 181700Z AUTO 18004KT 160V230 CAVOK 22/19 Q1020 NOSIG LFMD 181630Z AUTO 18005KT 100V210 CAVOK 23/18 Q1020 NOSIG LFMD 181600Z AUTO 19007KT 160V220 CAVOK 23/17 Q1020 NOSIG LFMD 181530Z AUTO 17007KT CAVOK 24/17 Q1020 NOSIG LFMD 181500Z AUTO 20005KT 170V240 CAVOK 24/16 Q1020 NOSIG LFMD 181430Z AUTO 20006KT 160V230 CAVOK 25/16 Q1019 NOSIG LFMD 181400Z AUTO 19005KT 140V260 CAVOK 24/15 Q1020 NOSIG

METAR Messwerte "CANNES/MANDELIEU" LFMD

Zurück zur Übersicht

Ortsname
Ländercode / m ü. NN
Zeit Temperatur Taupunkt Rel.
Luftfeuchte
Luftdruck:
Altimeter
NN
Station
Wind in Beaufort
(Knoten)
Sichtweite
(Meter)
Wolken
(Meter über Grund)
Wettererscheinung
CANNES/MANDELIEU
FR 2
Fr 20.05. 03:30161068 %1026
1026
1026
N 2 (4)
NNW - NO
>= 10000Nicht signifikant 
CANNES/MANDELIEU
FR 2
Fr 20.05. 03:00161068 %1025
1025
1025
N 2 (4)
NW - NNO
>= 10000Nicht signifikant 
CANNES/MANDELIEU
FR 2
Fr 20.05. 02:30161068 %1025
1025
1025
N 2 (4)>= 10000Nicht signifikant 
CANNES/MANDELIEU
FR 2
Fr 20.05. 02:00171168 %1025
1025
1025
N 2 (3)
NW - NO
>= 10000Nicht signifikant 
CANNES/MANDELIEU
FR 2
Fr 20.05. 01:30171168 %1025
1025
1025
Uml 2 (3)>= 10000Nicht signifikant 
CANNES/MANDELIEU
FR 2
Fr 20.05. 01:00171168 %1026
1026
1026
N 2 (3)
NW - NNO
>= 10000Nicht signifikant 
CANNES/MANDELIEU
FR 2
Fr 20.05. 00:30171272 %1026
1026
1026
N 2 (3)
NNW - NO
>= 10000Nicht signifikant 
CANNES/MANDELIEU
FR 2
Fr 20.05. 00:00181373 %1026
1026
1026
Uml 1 (2)>= 10000Nicht signifikant 
CANNES/MANDELIEU
FR 2
Do 19.05. 23:30181373 %1025
1025
1025
Uml 2 (3)>= 10000Nicht signifikant 
CANNES/MANDELIEU
FR 2
Do 19.05. 23:00191368 %1025
1025
1025
Uml 2 (3)>= 10000Nicht signifikant 
CANNES/MANDELIEU
FR 2
Do 19.05. 22:30191473 %1025
1025
1025
Uml 2 (3)>= 10000Nicht signifikant 
CANNES/MANDELIEU
FR 2
Do 19.05. 22:00201468 %1025
1025
1025
Uml 1 (2)>= 10000Nicht signifikant 
CANNES/MANDELIEU
FR 2
Do 19.05. 21:30211464 %1025
1025
1025
Uml 1 (2)>= 10000Nicht signifikant 
CANNES/MANDELIEU
FR 2
Do 19.05. 21:00221460 %1024
1024
1024
Uml 1 (1)>= 10000Nicht signifikant 
CANNES/MANDELIEU
FR 2
Do 19.05. 20:30231561 %1024
1024
1024
Uml 1 (2)>= 10000Nicht signifikant 
CANNES/MANDELIEU
FR 2
Do 19.05. 20:00231561 %1024
1024
1024
Uml 2 (3)>= 10000Nicht signifikant 
CANNES/MANDELIEU
FR 2
Do 19.05. 19:30241661 %1024
1024
1024
S 2 (4)>= 10000Nicht signifikant 
CANNES/MANDELIEU
FR 2
Do 19.05. 19:00241557 %1024
1024
1024
SSO 2 (5)>= 10000Nicht signifikant 
CANNES/MANDELIEU
FR 2
Do 19.05. 18:30241557 %1024
1024
1024
SSO 2 (4)
OSO - S
>= 10000Nicht signifikant 
CANNES/MANDELIEU
FR 2
Do 19.05. 18:00241661 %1024
1024
1024
SSO 2 (5)
OSO - SSW
>= 10000Nicht signifikant 
CANNES/MANDELIEU
FR 2
Do 19.05. 17:30251657 %1024
1024
1024
SSO 2 (5)
OSO - S
>= 10000Nicht signifikant 
CANNES/MANDELIEU
FR 2
Do 19.05. 17:00241661 %1024
1024
1024
S 2 (6)
SO - SSW
>= 10000Nicht signifikant 
CANNES/MANDELIEU
FR 2
Do 19.05. 16:30251554 %1025
1025
1025
S 2 (6)>= 10000Nicht signifikant 
CANNES/MANDELIEU
FR 2
Do 19.05. 16:00251554 %1025
1025
1025
SSO 2 (6)
OSO - S
>= 10000Nicht signifikant 
CANNES/MANDELIEU
FR 2
Do 19.05. 15:30251347 %1025
1025
1025
SSO 2 (6)>= 10000Nicht signifikant 
CANNES/MANDELIEU
FR 2
Do 19.05. 15:00251244 %1025
1025
1025
SSO 2 (6)>= 10000Nicht signifikant 
CANNES/MANDELIEU
FR 2
Do 19.05. 14:30261037 %1025
1025
1025
SSO 2 (6)
SO - SW
>= 10000Nicht signifikant 
CANNES/MANDELIEU
FR 2
Do 19.05. 14:00261139 %1025
1025
1025
S 2 (6)>= 10000Nicht signifikant 
CANNES/MANDELIEU
FR 2
Do 19.05. 13:30261139 %1025
1025
1025
S 2 (6)
SO - SSW
>= 10000Nicht signifikant 
CANNES/MANDELIEU
FR 2
Do 19.05. 13:0026934 %1025
1025
1025
SSO 3 (7)
OSO - S
>= 10000Nicht signifikant 
CANNES/MANDELIEU
FR 2
Do 19.05. 12:3026832 %1026
1026
1026
SSO 3 (9)
O - S
>= 10000Nicht signifikant 
CANNES/MANDELIEU
FR 2
Do 19.05. 12:0026832 %1026
1026
1026
SO 3 (8)
O - S
>= 10000Nicht signifikant 
CANNES/MANDELIEU
FR 2
Do 19.05. 11:3027626 %1026
1026
1026
SSO 3 (8)
O - S
>= 10000Nicht signifikant 
CANNES/MANDELIEU
FR 2
Do 19.05. 11:0026221 %1026
1026
1026
O 2 (6)
N - S
>= 10000Nicht signifikant 
CANNES/MANDELIEU
FR 2
Do 19.05. 10:3027118 %1025
1025
1025
OSO 3 (7)
NO - SSO
>= 10000Nicht signifikant 
CANNES/MANDELIEU
FR 2
Do 19.05. 10:0027932 %1025
1025
1025
Uml 2 (4)>= 10000Nicht signifikant 
CANNES/MANDELIEU
FR 2
Do 19.05. 09:30261139 %1025
1025
1025
ONO 2 (4)
N - SSO
>= 10000Nicht signifikant 
CANNES/MANDELIEU
FR 2
Do 19.05. 09:0025834 %1025
1025
1025
O 3 (7)
NNO - SSO
>= 10000Nicht signifikant 
CANNES/MANDELIEU
FR 2
Do 19.05. 08:30251141 %1024
1024
1024
ONO 2 (5)
NNO - SSO
>= 10000Nicht signifikant 
CANNES/MANDELIEU
FR 2
Do 19.05. 08:00231353 %1024
1024
1024
Uml 2 (3)>= 10000Nicht signifikant 
CANNES/MANDELIEU
FR 2
Do 19.05. 07:30201573 %1024
1024
1024
N 2 (3)
NNW - ONO
>= 10000Nicht signifikant 
CANNES/MANDELIEU
FR 2
Do 19.05. 07:00181477 %1024
1024
1024
N 2 (4)
NW - NO
>= 10000Nicht signifikant 
CANNES/MANDELIEU
FR 2
Do 19.05. 06:30171482 %1023
1023
1023
N 2 (4)
NNW - ONO
>= 10000Nicht signifikant 
CANNES/MANDELIEU
FR 2
Do 19.05. 06:00171482 %1023
1023
1023
NNO 2 (4)
NNW - ONO
>= 10000Nicht signifikant 
CANNES/MANDELIEU
FR 2
Do 19.05. 05:30171482 %1023
1023
1023
N 2 (4)
NNW - NO
>= 10000Nicht signifikant 
CANNES/MANDELIEU
FR 2
Do 19.05. 05:00171482 %1023
1023
1023
N 2 (4)>= 10000Nicht signifikant 
CANNES/MANDELIEU
FR 2
Do 19.05. 04:30171482 %1022
1022
1022
N 2 (4)
NNW - NNO
>= 10000Nicht signifikant 
CANNES/MANDELIEU
FR 2
Do 19.05. 04:00171588 %1023
1023
1023
N 2 (4)
NNW - NO
>= 10000Nicht signifikant 
CANNES/MANDELIEU
FR 2
Do 19.05. 03:30171588 %1022
1022
1022
Uml 2 (3)>= 10000Nicht signifikant 
CANNES/MANDELIEU
FR 2
Do 19.05. 03:00181583 %1022
1022
1022
N 2 (5)
NNW - NO
>= 10000Nicht signifikant 
CANNES/MANDELIEU
FR 2
Do 19.05. 02:30181583 %1022
1022
1022
Uml 2 (3)>= 10000Nicht signifikant 
CANNES/MANDELIEU
FR 2
Do 19.05. 02:00181583 %1022
1022
1022
Uml 2 (3)>= 10000Nicht signifikant 
CANNES/MANDELIEU
FR 2
Do 19.05. 01:30181583 %1022
1022
1022
Uml 1 (2)>= 10000Nicht signifikant 
CANNES/MANDELIEU
FR 2
Do 19.05. 01:00191683 %1022
1022
1022
Uml 2 (3)>= 10000Nicht signifikant 
CANNES/MANDELIEU
FR 2
Do 19.05. 00:30191683 %1021
1021
1021
Uml 2 (3)>= 10000Nicht signifikant 
CANNES/MANDELIEU
FR 2
Do 19.05. 00:00191683 %1021
1021
1021
Uml 1 (2)>= 10000Nicht signifikant 
CANNES/MANDELIEU
FR 2
Mi 18.05. 23:30191683 %1021
1021
1021
N 2 (3)
NW - O
>= 10000Nicht signifikant 
CANNES/MANDELIEU
FR 2
Mi 18.05. 23:00191683 %1021
1021
1021
Uml 1 (2)>= 10000Nicht signifikant 
CANNES/MANDELIEU
FR 2
Mi 18.05. 22:30201678 %1021
1021
1021
Uml 1 (2)>= 10000Nicht signifikant 
CANNES/MANDELIEU
FR 2
Mi 18.05. 22:00201783 %1021
1021
1021
NNO 1 (2)>= 10000Nicht signifikant 
CANNES/MANDELIEU
FR 2
Mi 18.05. 21:30211673 %1021
1021
1021
Windstill>= 10000Nicht signifikant 
CANNES/MANDELIEU
FR 2
Mi 18.05. 21:00201678 %1021
1021
1021
Uml 1 (2)>= 10000Nicht signifikant 
CANNES/MANDELIEU
FR 2
Mi 18.05. 20:30211883 %1020
1020
1020
SSW 2 (4)
S - SW
>= 10000Nicht signifikant 
CANNES/MANDELIEU
FR 2
Mi 18.05. 20:00211883 %1020
1020
1020
S 2 (4)>= 10000Nicht signifikant 
CANNES/MANDELIEU
FR 2
Mi 18.05. 19:30211883 %1020
1020
1020
S 2 (5)>= 10000Nicht signifikant 
CANNES/MANDELIEU
FR 2
Mi 18.05. 19:00221983 %1020
1020
1020
S 2 (4)
SSO - SW
>= 10000Nicht signifikant 
CANNES/MANDELIEU
FR 2
Mi 18.05. 18:30231873 %1020
1020
1020
S 2 (5)
O - SSW
>= 10000Nicht signifikant 
CANNES/MANDELIEU
FR 2
Mi 18.05. 18:00231769 %1020
1020
1020
S 3 (7)
SSO - SW
>= 10000Nicht signifikant 
CANNES/MANDELIEU
FR 2
Mi 18.05. 17:30241765 %1020
1020
1020
S 3 (7)>= 10000Nicht signifikant 
CANNES/MANDELIEU
FR 2
Mi 18.05. 17:00241661 %1020
1020
1020
SSW 2 (5)
S - WSW
>= 10000Nicht signifikant 
CANNES/MANDELIEU
FR 2
Mi 18.05. 16:30251657 %1019
1019
1019
SSW 2 (6)
SSO - SW
>= 10000Nicht signifikant 
CANNES/MANDELIEU
FR 2
Mi 18.05. 16:00241557 %1020
1020
1020
S 2 (5)
SO - W
>= 10000Nicht signifikant 

Altimeter: Einstellung am Altimeter (Höhenmesser), die Höhe 0 muss auf diesen Luftdruckwert zeigen, damit das Gerät die Stationshöhe richtig anzeigt.

NN: Luftdruck reduziert auf "Normal Null", auf Meereshöhe, dieser von der Temperatur abhängige Wert wird bisweilen unkorrekt einfach als "Luftdruck" bezeichnet. Eigentlich nur eine fiktive Größe, die es erlaubt, Stationen auf unterschiedlichen Höhen miteinander zu vergleichen.

Station: Realer Luftdruck an der Station.